sensor_id;sensor_type;location;lat;lon;timestamp;P1;durP1;ratioP1;P2;durP2;ratioP2
29574;SDS011;16507;51.046;6.406;2022-10-16T00:01:04;7.03;;;1.35;;
29574;SDS011;16507;51.046;6.406;2022-10-16T00:03:32;3.80;;;1.48;;
29574;SDS011;16507;51.046;6.406;2022-10-16T00:05:58;7.03;;;1.42;;
29574;SDS011;16507;51.046;6.406;2022-10-16T00:08:25;4.80;;;1.55;;
29574;SDS011;16507;51.046;6.406;2022-10-16T00:10:51;4.63;;;1.30;;
29574;SDS011;16507;51.046;6.406;2022-10-16T00:13:16;4.30;;;1.10;;
29574;SDS011;16507;51.046;6.406;2022-10-16T00:15:43;1.92;;;1.23;;
29574;SDS011;16507;51.046;6.406;2022-10-16T00:18:09;2.30;;;1.20;;
29574;SDS011;16507;51.046;6.406;2022-10-16T00:20:35;1.70;;;1.40;;
29574;SDS011;16507;51.046;6.406;2022-10-16T00:23:02;1.45;;;1.10;;
29574;SDS011;16507;51.046;6.406;2022-10-16T00:25:28;5.20;;;1.13;;
29574;SDS011;16507;51.046;6.406;2022-10-16T00:27:54;4.95;;;1.08;;
29574;SDS011;16507;51.046;6.406;2022-10-16T00:30:20;1.48;;;1.10;;
29574;SDS011;16507;51.046;6.406;2022-10-16T00:32:45;13.77;;;1.50;;
29574;SDS011;16507;51.046;6.406;2022-10-16T00:35:11;12.85;;;1.50;;
29574;SDS011;16507;51.046;6.406;2022-10-16T00:37:36;3.60;;;1.08;;
29574;SDS011;16507;51.046;6.406;2022-10-16T00:40:02;6.20;;;1.13;;
29574;SDS011;16507;51.046;6.406;2022-10-16T00:42:28;6.50;;;1.00;;
29574;SDS011;16507;51.046;6.406;2022-10-16T00:44:55;7.85;;;0.98;;
29574;SDS011;16507;51.046;6.406;2022-10-16T00:47:42;2.25;;;0.93;;
29574;SDS011;16507;51.046;6.406;2022-10-16T00:52:48;2.95;;;1.10;;
29574;SDS011;16507;51.046;6.406;2022-10-16T00:55:16;0.90;;;0.90;;
29574;SDS011;16507;51.046;6.406;2022-10-16T00:57:42;8.50;;;1.30;;
29574;SDS011;16507;51.046;6.406;2022-10-16T01:00:10;1.55;;;1.30;;
29574;SDS011;16507;51.046;6.406;2022-10-16T01:02:38;1.90;;;1.20;;
29574;SDS011;16507;51.046;6.406;2022-10-16T01:05:03;6.17;;;1.10;;
29574;SDS011;16507;51.046;6.406;2022-10-16T01:15:41;1.40;;;1.30;;
29574;SDS011;16507;51.046;6.406;2022-10-16T01:18:21;5.95;;;1.20;;
29574;SDS011;16507;51.046;6.406;2022-10-16T01:21:08;1.73;;;1.20;;
29574;SDS011;16507;51.046;6.406;2022-10-16T01:24:00;6.25;;;1.30;;
29574;SDS011;16507;51.046;6.406;2022-10-16T01:29:33;2.35;;;1.40;;
29574;SDS011;16507;51.046;6.406;2022-10-16T01:32:01;3.00;;;1.60;;
29574;SDS011;16507;51.046;6.406;2022-10-16T01:34:42;5.32;;;1.40;;
29574;SDS011;16507;51.046;6.406;2022-10-16T01:37:15;5.68;;;1.50;;
29574;SDS011;16507;51.046;6.406;2022-10-16T01:39:47;1.75;;;1.20;;
29574;SDS011;16507;51.046;6.406;2022-10-16T01:42:19;3.30;;;1.20;;
29574;SDS011;16507;51.046;6.406;2022-10-16T01:44:48;5.60;;;1.23;;
29574;SDS011;16507;51.046;6.406;2022-10-16T01:47:16;1.73;;;1.27;;
29574;SDS011;16507;51.046;6.406;2022-10-16T01:49:46;2.83;;;1.05;;
29574;SDS011;16507;51.046;6.406;2022-10-16T01:52:14;4.30;;;1.15;;
29574;SDS011;16507;51.046;6.406;2022-10-16T01:54:45;7.63;;;1.83;;
29574;SDS011;16507;51.046;6.406;2022-10-16T01:57:12;2.35;;;1.10;;
29574;SDS011;16507;51.046;6.406;2022-10-16T01:59:42;1.92;;;1.17;;
29574;SDS011;16507;51.046;6.406;2022-10-16T02:02:11;2.50;;;0.98;;
29574;SDS011;16507;51.046;6.406;2022-10-16T02:04:40;3.47;;;1.58;;
29574;SDS011;16507;51.046;6.406;2022-10-16T02:07:10;3.20;;;0.95;;
29574;SDS011;16507;51.046;6.406;2022-10-16T02:09:37;5.35;;;1.10;;
29574;SDS011;16507;51.046;6.406;2022-10-16T02:12:10;2.63;;;1.15;;
29574;SDS011;16507;51.046;6.406;2022-10-16T02:14:44;0.80;;;0.70;;
29574;SDS011;16507;51.046;6.406;2022-10-16T02:17:13;4.50;;;0.90;;
29574;SDS011;16507;51.046;6.406;2022-10-16T02:22:09;3.05;;;0.70;;
29574;SDS011;16507;51.046;6.406;2022-10-16T02:27:26;0.80;;;0.70;;
29574;SDS011;16507;51.046;6.406;2022-10-16T02:30:48;3.83;;;0.73;;
29574;SDS011;16507;51.046;6.406;2022-10-16T02:32:56;5.28;;;0.80;;
29574;SDS011;16507;51.046;6.406;2022-10-16T02:35:24;1.90;;;0.88;;
29574;SDS011;16507;51.046;6.406;2022-10-16T02:37:52;2.95;;;0.50;;
29574;SDS011;16507;51.046;6.406;2022-10-16T02:40:18;2.42;;;0.60;;
29574;SDS011;16507;51.046;6.406;2022-10-16T02:42:49;0.93;;;0.50;;
29574;SDS011;16507;51.046;6.406;2022-10-16T02:45:16;4.03;;;1.02;;
29574;SDS011;16507;51.046;6.406;2022-10-16T02:47:42;0.50;;;0.50;;
29574;SDS011;16507;51.046;6.406;2022-10-16T02:50:08;7.32;;;0.80;;
29574;SDS011;16507;51.046;6.406;2022-10-16T02:52:34;3.03;;;0.80;;
29574;SDS011;16507;51.046;6.406;2022-10-16T02:55:00;3.33;;;0.70;;
29574;SDS011;16507;51.046;6.406;2022-10-16T02:57:25;2.40;;;0.80;;
29574;SDS011;16507;51.046;6.406;2022-10-16T02:59:51;2.50;;;0.60;;
29574;SDS011;16507;51.046;6.406;2022-10-16T03:02:17;5.93;;;0.95;;
29574;SDS011;16507;51.046;6.406;2022-10-16T03:04:43;0.73;;;0.60;;
29574;SDS011;16507;51.046;6.406;2022-10-16T03:07:09;2.65;;;0.60;;
29574;SDS011;16507;51.046;6.406;2022-10-16T03:09:34;1.75;;;0.68;;
29574;SDS011;16507;51.046;6.406;2022-10-16T03:12:00;23.85;;;1.63;;
29574;SDS011;16507;51.046;6.406;2022-10-16T03:14:26;5.47;;;0.82;;
29574;SDS011;16507;51.046;6.406;2022-10-16T03:16:51;1.77;;;0.85;;
29574;SDS011;16507;51.046;6.406;2022-10-16T03:19:17;1.85;;;0.60;;
29574;SDS011;16507;51.046;6.406;2022-10-16T03:21:43;2.53;;;0.80;;
29574;SDS011;16507;51.046;6.406;2022-10-16T03:24:09;0.82;;;0.70;;
29574;SDS011;16507;51.046;6.406;2022-10-16T03:26:34;7.38;;;0.82;;
29574;SDS011;16507;51.046;6.406;2022-10-16T03:29:00;4.32;;;0.63;;
29574;SDS011;16507;51.046;6.406;2022-10-16T03:31:28;2.63;;;0.70;;
29574;SDS011;16507;51.046;6.406;2022-10-16T03:33:57;1.33;;;0.68;;
29574;SDS011;16507;51.046;6.406;2022-10-16T03:36:22;1.08;;;0.70;;
29574;SDS011;16507;51.046;6.406;2022-10-16T03:38:48;3.85;;;0.60;;
29574;SDS011;16507;51.046;6.406;2022-10-16T03:41:13;5.70;;;0.50;;
29574;SDS011;16507;51.046;6.406;2022-10-16T03:43:39;1.27;;;0.50;;
29574;SDS011;16507;51.046;6.406;2022-10-16T03:46:05;2.97;;;0.60;;
29574;SDS011;16507;51.046;6.406;2022-10-16T03:48:30;2.08;;;0.50;;
29574;SDS011;16507;51.046;6.406;2022-10-16T03:50:57;0.82;;;0.50;;
29574;SDS011;16507;51.046;6.406;2022-10-16T03:53:22;2.00;;;0.47;;
29574;SDS011;16507;51.046;6.406;2022-10-16T03:55:48;1.52;;;0.52;;
29574;SDS011;16507;51.046;6.406;2022-10-16T03:58:14;1.00;;;0.63;;
29574;SDS011;16507;51.046;6.406;2022-10-16T04:00:43;3.97;;;0.80;;
29574;SDS011;16507;51.046;6.406;2022-10-16T04:03:09;3.72;;;0.75;;
29574;SDS011;16507;51.046;6.406;2022-10-16T04:05:36;1.35;;;0.60;;
29574;SDS011;16507;51.046;6.406;2022-10-16T04:08:01;42.85;;;2.40;;
29574;SDS011;16507;51.046;6.406;2022-10-16T04:10:27;5.97;;;0.68;;
29574;SDS011;16507;51.046;6.406;2022-10-16T04:12:53;5.25;;;0.77;;
29574;SDS011;16507;51.046;6.406;2022-10-16T04:15:21;3.72;;;0.90;;
29574;SDS011;16507;51.046;6.406;2022-10-16T04:17:47;1.17;;;0.80;;
29574;SDS011;16507;51.046;6.406;2022-10-16T04:20:12;2.03;;;0.95;;
29574;SDS011;16507;51.046;6.406;2022-10-16T04:22:38;2.25;;;0.80;;
29574;SDS011;16507;51.046;6.406;2022-10-16T04:25:04;5.65;;;0.95;;
29574;SDS011;16507;51.046;6.406;2022-10-16T04:27:30;2.72;;;1.00;;
29574;SDS011;16507;51.046;6.406;2022-10-16T04:29:56;1.85;;;0.82;;
29574;SDS011;16507;51.046;6.406;2022-10-16T04:32:23;8.32;;;0.93;;
29574;SDS011;16507;51.046;6.406;2022-10-16T04:34:48;0.82;;;0.70;;
29574;SDS011;16507;51.046;6.406;2022-10-16T04:37:14;2.08;;;0.80;;
29574;SDS011;16507;51.046;6.406;2022-10-16T04:39:39;5.68;;;1.25;;
29574;SDS011;16507;51.046;6.406;2022-10-16T04:42:05;6.10;;;0.80;;
29574;SDS011;16507;51.046;6.406;2022-10-16T04:44:30;20.38;;;1.77;;
29574;SDS011;16507;51.046;6.406;2022-10-16T04:46:56;5.78;;;1.40;;
29574;SDS011;16507;51.046;6.406;2022-10-16T04:49:22;10.30;;;1.10;;
29574;SDS011;16507;51.046;6.406;2022-10-16T04:51:47;2.42;;;0.90;;
29574;SDS011;16507;51.046;6.406;2022-10-16T04:54:13;29.83;;;1.92;;
29574;SDS011;16507;51.046;6.406;2022-10-16T04:56:38;5.07;;;0.95;;
29574;SDS011;16507;51.046;6.406;2022-10-16T04:59:15;5.18;;;1.20;;
29574;SDS011;16507;51.046;6.406;2022-10-16T05:01:41;3.30;;;1.10;;
29574;SDS011;16507;51.046;6.406;2022-10-16T05:04:06;3.22;;;1.13;;
29574;SDS011;16507;51.046;6.406;2022-10-16T05:06:33;6.82;;;1.52;;
29574;SDS011;16507;51.046;6.406;2022-10-16T05:08:58;6.95;;;1.88;;
29574;SDS011;16507;51.046;6.406;2022-10-16T05:11:24;4.10;;;1.40;;
29574;SDS011;16507;51.046;6.406;2022-10-16T05:13:49;6.75;;;1.63;;
29574;SDS011;16507;51.046;6.406;2022-10-16T05:16:15;9.30;;;1.55;;
29574;SDS011;16507;51.046;6.406;2022-10-16T05:18:41;10.32;;;2.15;;
29574;SDS011;16507;51.046;6.406;2022-10-16T05:21:06;4.05;;;1.42;;
29574;SDS011;16507;51.046;6.406;2022-10-16T05:23:32;7.75;;;1.70;;
29574;SDS011;16507;51.046;6.406;2022-10-16T05:25:58;11.82;;;1.70;;
29574;SDS011;16507;51.046;6.406;2022-10-16T05:28:25;7.93;;;1.83;;
29574;SDS011;16507;51.046;6.406;2022-10-16T05:30:51;11.38;;;1.65;;
29574;SDS011;16507;51.046;6.406;2022-10-16T05:33:19;3.00;;;1.45;;
29574;SDS011;16507;51.046;6.406;2022-10-16T05:35:45;2.97;;;1.85;;
29574;SDS011;16507;51.046;6.406;2022-10-16T05:38:11;4.22;;;1.55;;
29574;SDS011;16507;51.046;6.406;2022-10-16T05:40:37;2.50;;;1.58;;
29574;SDS011;16507;51.046;6.406;2022-10-16T05:43:02;12.07;;;1.90;;
29574;SDS011;16507;51.046;6.406;2022-10-16T05:45:28;6.65;;;1.52;;
29574;SDS011;16507;51.046;6.406;2022-10-16T05:47:54;13.20;;;1.48;;
29574;SDS011;16507;51.046;6.406;2022-10-16T05:50:19;1.67;;;1.58;;
29574;SDS011;16507;51.046;6.406;2022-10-16T05:52:45;9.20;;;2.05;;
29574;SDS011;16507;51.046;6.406;2022-10-16T05:55:10;10.85;;;3.00;;
29574;SDS011;16507;51.046;6.406;2022-10-16T05:57:36;12.10;;;2.60;;
29574;SDS011;16507;51.046;6.406;2022-10-16T06:00:03;6.53;;;2.78;;
29574;SDS011;16507;51.046;6.406;2022-10-16T06:02:29;10.52;;;3.30;;
29574;SDS011;16507;51.046;6.406;2022-10-16T06:04:54;11.75;;;2.17;;
29574;SDS011;16507;51.046;6.406;2022-10-16T06:07:20;2.88;;;1.42;;
29574;SDS011;16507;51.046;6.406;2022-10-16T06:09:49;10.70;;;2.03;;
29574;SDS011;16507;51.046;6.406;2022-10-16T06:12:16;12.93;;;1.80;;
29574;SDS011;16507;51.046;6.406;2022-10-16T06:14:42;9.40;;;1.88;;
29574;SDS011;16507;51.046;6.406;2022-10-16T06:17:07;10.43;;;3.35;;
29574;SDS011;16507;51.046;6.406;2022-10-16T06:19:33;5.13;;;2.42;;
29574;SDS011;16507;51.046;6.406;2022-10-16T06:21:59;20.85;;;4.00;;
29574;SDS011;16507;51.046;6.406;2022-10-16T06:24:25;9.93;;;3.15;;
29574;SDS011;16507;51.046;6.406;2022-10-16T06:26:51;13.45;;;4.60;;
29574;SDS011;16507;51.046;6.406;2022-10-16T06:29:16;15.10;;;6.25;;
29574;SDS011;16507;51.046;6.406;2022-10-16T06:31:42;20.50;;;8.40;;
29574;SDS011;16507;51.046;6.406;2022-10-16T06:34:08;11.75;;;6.07;;
29574;SDS011;16507;51.046;6.406;2022-10-16T06:36:36;7.43;;;3.72;;
29574;SDS011;16507;51.046;6.406;2022-10-16T06:39:03;8.73;;;2.85;;
29574;SDS011;16507;51.046;6.406;2022-10-16T06:41:30;5.82;;;3.30;;
29574;SDS011;16507;51.046;6.406;2022-10-16T06:43:56;2.75;;;2.40;;
29574;SDS011;16507;51.046;6.406;2022-10-16T06:46:22;7.15;;;2.90;;
29574;SDS011;16507;51.046;6.406;2022-10-16T06:48:49;2.08;;;1.98;;
29574;SDS011;16507;51.046;6.406;2022-10-16T06:51:16;2.33;;;1.80;;
29574;SDS011;16507;51.046;6.406;2022-10-16T06:53:44;2.83;;;1.80;;
29574;SDS011;16507;51.046;6.406;2022-10-16T06:56:21;2.95;;;1.65;;
29574;SDS011;16507;51.046;6.406;2022-10-16T06:58:48;3.60;;;2.55;;
29574;SDS011;16507;51.046;6.406;2022-10-16T07:01:16;10.30;;;3.38;;
29574;SDS011;16507;51.046;6.406;2022-10-16T07:03:44;2.92;;;1.42;;
29574;SDS011;16507;51.046;6.406;2022-10-16T07:06:11;4.38;;;2.50;;
29574;SDS011;16507;51.046;6.406;2022-10-16T07:08:40;2.45;;;1.63;;
29574;SDS011;16507;51.046;6.406;2022-10-16T07:11:08;5.03;;;3.30;;
29574;SDS011;16507;51.046;6.406;2022-10-16T07:13:36;4.63;;;1.63;;
29574;SDS011;16507;51.046;6.406;2022-10-16T07:16:05;11.45;;;2.45;;
29574;SDS011;16507;51.046;6.406;2022-10-16T07:18:35;4.65;;;2.53;;
29574;SDS011;16507;51.046;6.406;2022-10-16T07:21:08;2.20;;;2.00;;
29574;SDS011;16507;51.046;6.406;2022-10-16T07:23:35;8.43;;;1.83;;
29574;SDS011;16507;51.046;6.406;2022-10-16T07:26:01;4.10;;;1.10;;
29574;SDS011;16507;51.046;6.406;2022-10-16T07:28:27;7.47;;;2.10;;
29574;SDS011;16507;51.046;6.406;2022-10-16T07:30:53;3.50;;;1.88;;
29574;SDS011;16507;51.046;6.406;2022-10-16T07:33:19;5.47;;;1.77;;
29574;SDS011;16507;51.046;6.406;2022-10-16T07:35:49;4.63;;;1.08;;
29574;SDS011;16507;51.046;6.406;2022-10-16T07:38:18;7.82;;;2.05;;
29574;SDS011;16507;51.046;6.406;2022-10-16T07:40:45;1.92;;;1.50;;
29574;SDS011;16507;51.046;6.406;2022-10-16T07:43:10;3.95;;;1.30;;
29574;SDS011;16507;51.046;6.406;2022-10-16T07:45:36;3.38;;;1.17;;
29574;SDS011;16507;51.046;6.406;2022-10-16T07:48:02;3.65;;;2.03;;
29574;SDS011;16507;51.046;6.406;2022-10-16T07:50:28;2.40;;;1.08;;
29574;SDS011;16507;51.046;6.406;2022-10-16T07:52:53;1.30;;;1.20;;
29574;SDS011;16507;51.046;6.406;2022-10-16T07:55:19;9.05;;;1.45;;
29574;SDS011;16507;51.046;6.406;2022-10-16T07:57:45;3.20;;;1.02;;
29574;SDS011;16507;51.046;6.406;2022-10-16T08:00:10;1.17;;;1.08;;
29574;SDS011;16507;51.046;6.406;2022-10-16T08:02:40;1.00;;;0.88;;
29574;SDS011;16507;51.046;6.406;2022-10-16T08:05:06;1.98;;;1.05;;
29574;SDS011;16507;51.046;6.406;2022-10-16T08:07:32;0.75;;;0.75;;
29574;SDS011;16507;51.046;6.406;2022-10-16T08:09:57;3.95;;;1.15;;
29574;SDS011;16507;51.046;6.406;2022-10-16T08:12:24;3.75;;;0.80;;
29574;SDS011;16507;51.046;6.406;2022-10-16T08:14:52;1.00;;;0.90;;
29574;SDS011;16507;51.046;6.406;2022-10-16T08:17:18;2.97;;;0.80;;
29574;SDS011;16507;51.046;6.406;2022-10-16T08:19:44;2.88;;;0.80;;
29574;SDS011;16507;51.046;6.406;2022-10-16T08:22:10;1.90;;;0.90;;
29574;SDS011;16507;51.046;6.406;2022-10-16T08:24:36;1.40;;;0.90;;
29574;SDS011;16507;51.046;6.406;2022-10-16T08:27:02;1.50;;;0.93;;
29574;SDS011;16507;51.046;6.406;2022-10-16T08:29:28;2.72;;;0.90;;
29574;SDS011;16507;51.046;6.406;2022-10-16T08:31:53;1.58;;;0.60;;
29574;SDS011;16507;51.046;6.406;2022-10-16T08:34:19;0.60;;;0.60;;
29574;SDS011;16507;51.046;6.406;2022-10-16T08:36:45;2.22;;;0.68;;
29574;SDS011;16507;51.046;6.406;2022-10-16T08:39:10;3.30;;;0.70;;
29574;SDS011;16507;51.046;6.406;2022-10-16T08:48:17;2.35;;;0.50;;
29574;SDS011;16507;51.046;6.406;2022-10-16T08:50:37;2.47;;;0.60;;
29574;SDS011;16507;51.046;6.406;2022-10-16T08:53:06;3.28;;;0.75;;
29574;SDS011;16507;51.046;6.406;2022-10-16T08:55:50;2.80;;;0.60;;
29574;SDS011;16507;51.046;6.406;2022-10-16T08:58:20;2.92;;;0.40;;
29574;SDS011;16507;51.046;6.406;2022-10-16T09:00:50;2.08;;;0.45;;
29574;SDS011;16507;51.046;6.406;2022-10-16T09:03:24;0.77;;;0.40;;
29574;SDS011;16507;51.046;6.406;2022-10-16T09:06:10;2.50;;;0.40;;
29574;SDS011;16507;51.046;6.406;2022-10-16T09:11:49;2.72;;;0.30;;
29574;SDS011;16507;51.046;6.406;2022-10-16T09:17:09;1.00;;;0.43;;
29574;SDS011;16507;51.046;6.406;2022-10-16T09:22:39;1.08;;;0.70;;
29574;SDS011;16507;51.046;6.406;2022-10-16T09:25:19;1.25;;;0.43;;
29574;SDS011;16507;51.046;6.406;2022-10-16T09:27:47;2.83;;;0.57;;
29574;SDS011;16507;51.046;6.406;2022-10-16T09:30:15;2.35;;;0.30;;
29574;SDS011;16507;51.046;6.406;2022-10-16T09:32:43;2.25;;;0.30;;
29574;SDS011;16507;51.046;6.406;2022-10-16T09:35:16;2.50;;;0.50;;
29574;SDS011;16507;51.046;6.406;2022-10-16T09:37:49;3.45;;;0.40;;
29574;SDS011;16507;51.046;6.406;2022-10-16T09:40:29;2.42;;;0.50;;
29574;SDS011;16507;51.046;6.406;2022-10-16T09:43:12;1.33;;;0.47;;
29574;SDS011;16507;51.046;6.406;2022-10-16T09:48:44;2.55;;;0.40;;
29574;SDS011;16507;51.046;6.406;2022-10-16T09:51:33;0.90;;;0.40;;
29574;SDS011;16507;51.046;6.406;2022-10-16T09:56:36;2.42;;;0.57;;
29574;SDS011;16507;51.046;6.406;2022-10-16T09:59:16;2.58;;;0.50;;
29574;SDS011;16507;51.046;6.406;2022-10-16T10:01:47;5.85;;;0.77;;
29574;SDS011;16507;51.046;6.406;2022-10-16T10:09:23;1.15;;;0.40;;
29574;SDS011;16507;51.046;6.406;2022-10-16T10:14:37;1.70;;;0.30;;
29574;SDS011;16507;51.046;6.406;2022-10-16T10:17:13;2.38;;;0.30;;
29574;SDS011;16507;51.046;6.406;2022-10-16T10:19:57;3.67;;;0.43;;
29574;SDS011;16507;51.046;6.406;2022-10-16T10:22:46;4.05;;;0.50;;
29574;SDS011;16507;51.046;6.406;2022-10-16T10:30:32;4.07;;;1.05;;
29574;SDS011;16507;51.046;6.406;2022-10-16T10:33:20;4.80;;;0.43;;
29574;SDS011;16507;51.046;6.406;2022-10-16T10:38:42;2.75;;;0.50;;
29574;SDS011;16507;51.046;6.406;2022-10-16T10:44:19;1.20;;;0.40;;
29574;SDS011;16507;51.046;6.406;2022-10-16T10:47:13;3.80;;;0.60;;
29574;SDS011;16507;51.046;6.406;2022-10-16T10:52:43;1.75;;;0.40;;
29574;SDS011;16507;51.046;6.406;2022-10-16T10:55:39;1.27;;;0.50;;
29574;SDS011;16507;51.046;6.406;2022-10-16T11:06:30;2.47;;;0.50;;
29574;SDS011;16507;51.046;6.406;2022-10-16T11:09:12;1.33;;;0.30;;
29574;SDS011;16507;51.046;6.406;2022-10-16T11:12:31;1.17;;;0.32;;
29574;SDS011;16507;51.046;6.406;2022-10-16T11:14:56;3.67;;;0.57;;
29574;SDS011;16507;51.046;6.406;2022-10-16T11:17:30;3.38;;;0.80;;
29574;SDS011;16507;51.046;6.406;2022-10-16T11:20:02;3.28;;;0.80;;
29574;SDS011;16507;51.046;6.406;2022-10-16T11:23:01;1.88;;;0.50;;
29574;SDS011;16507;51.046;6.406;2022-10-16T11:25:32;3.15;;;0.30;;
29574;SDS011;16507;51.046;6.406;2022-10-16T11:36:05;0.75;;;0.30;;
29574;SDS011;16507;51.046;6.406;2022-10-16T11:39:11;6.55;;;0.45;;
29574;SDS011;16507;51.046;6.406;2022-10-16T11:41:59;0.80;;;0.73;;
29574;SDS011;16507;51.046;6.406;2022-10-16T11:53:23;2.63;;;0.30;;
29574;SDS011;16507;51.046;6.406;2022-10-16T11:55:52;0.57;;;0.40;;
29574;SDS011;16507;51.046;6.406;2022-10-16T12:03:35;2.08;;;0.30;;
29574;SDS011;16507;51.046;6.406;2022-10-16T12:08:43;1.08;;;0.30;;
29574;SDS011;16507;51.046;6.406;2022-10-16T12:11:32;0.93;;;0.38;;
29574;SDS011;16507;51.046;6.406;2022-10-16T12:16:54;1.13;;;0.40;;
29574;SDS011;16507;51.046;6.406;2022-10-16T12:19:22;1.13;;;0.30;;
29574;SDS011;16507;51.046;6.406;2022-10-16T12:21:49;2.53;;;0.40;;
29574;SDS011;16507;51.046;6.406;2022-10-16T12:27:02;4.47;;;0.40;;
29574;SDS011;16507;51.046;6.406;2022-10-16T12:29:40;2.47;;;0.40;;
29574;SDS011;16507;51.046;6.406;2022-10-16T12:34:55;1.42;;;0.40;;
29574;SDS011;16507;51.046;6.406;2022-10-16T12:37:34;2.08;;;0.45;;
29574;SDS011;16507;51.046;6.406;2022-10-16T12:40:16;2.40;;;0.40;;
29574;SDS011;16507;51.046;6.406;2022-10-16T12:42:53;2.20;;;0.40;;
29574;SDS011;16507;51.046;6.406;2022-10-16T12:45:27;8.02;;;0.57;;
29574;SDS011;16507;51.046;6.406;2022-10-16T12:47:56;0.52;;;0.20;;
29574;SDS011;16507;51.046;6.406;2022-10-16T12:50:23;1.17;;;0.30;;
29574;SDS011;16507;51.046;6.406;2022-10-16T12:52:49;1.38;;;0.50;;
29574;SDS011;16507;51.046;6.406;2022-10-16T12:55:18;11.85;;;1.42;;
29574;SDS011;16507;51.046;6.406;2022-10-16T13:00:36;10.30;;;0.80;;
29574;SDS011;16507;51.046;6.406;2022-10-16T13:08:35;1.73;;;0.50;;
29574;SDS011;16507;51.046;6.406;2022-10-16T13:11:49;1.45;;;0.40;;
29574;SDS011;16507;51.046;6.406;2022-10-16T13:20:11;4.75;;;0.63;;
29574;SDS011;16507;51.046;6.406;2022-10-16T13:22:50;0.70;;;0.40;;
29574;SDS011;16507;51.046;6.406;2022-10-16T13:25:31;0.60;;;0.40;;
29574;SDS011;16507;51.046;6.406;2022-10-16T13:28:10;21.35;;;1.27;;
29574;SDS011;16507;51.046;6.406;2022-10-16T13:30:44;1.02;;;0.50;;
29574;SDS011;16507;51.046;6.406;2022-10-16T13:33:18;3.60;;;0.55;;
29574;SDS011;16507;51.046;6.406;2022-10-16T13:35:58;1.10;;;0.30;;
29574;SDS011;16507;51.046;6.406;2022-10-16T13:38:25;1.25;;;0.28;;
29574;SDS011;16507;51.046;6.406;2022-10-16T13:43:34;1.50;;;0.60;;
29574;SDS011;16507;51.046;6.406;2022-10-16T13:46:24;0.57;;;0.30;;
29574;SDS011;16507;51.046;6.406;2022-10-16T13:48:58;4.32;;;0.47;;
29574;SDS011;16507;51.046;6.406;2022-10-16T13:51:55;1.00;;;0.38;;
29574;SDS011;16507;51.046;6.406;2022-10-16T13:54:22;17.88;;;1.35;;
29574;SDS011;16507;51.046;6.406;2022-10-16T13:56:48;3.45;;;0.73;;
29574;SDS011;16507;51.046;6.406;2022-10-16T14:01:59;2.65;;;1.05;;
29574;SDS011;16507;51.046;6.406;2022-10-16T14:04:31;11.60;;;0.90;;
29574;SDS011;16507;51.046;6.406;2022-10-16T14:06:58;0.55;;;0.20;;
29574;SDS011;16507;51.046;6.406;2022-10-16T14:09:24;3.38;;;0.50;;
29574;SDS011;16507;51.046;6.406;2022-10-16T14:11:56;9.13;;;0.75;;
29574;SDS011;16507;51.046;6.406;2022-10-16T14:14:25;7.07;;;0.50;;
29574;SDS011;16507;51.046;6.406;2022-10-16T14:16:57;3.17;;;0.32;;
29574;SDS011;16507;51.046;6.406;2022-10-16T14:19:26;4.20;;;0.40;;
29574;SDS011;16507;51.046;6.406;2022-10-16T14:21:54;0.43;;;0.40;;
29574;SDS011;16507;51.046;6.406;2022-10-16T14:26:57;0.82;;;0.40;;
29574;SDS011;16507;51.046;6.406;2022-10-16T14:29:24;5.10;;;0.50;;
29574;SDS011;16507;51.046;6.406;2022-10-16T14:31:58;5.30;;;0.40;;
29574;SDS011;16507;51.046;6.406;2022-10-16T14:34:33;2.03;;;0.40;;
29574;SDS011;16507;51.046;6.406;2022-10-16T14:37:01;1.85;;;0.30;;
29574;SDS011;16507;51.046;6.406;2022-10-16T14:39:33;5.78;;;0.40;;
29574;SDS011;16507;51.046;6.406;2022-10-16T14:42:00;2.45;;;0.95;;
29574;SDS011;16507;51.046;6.406;2022-10-16T14:44:27;0.90;;;0.38;;
29574;SDS011;16507;51.046;6.406;2022-10-16T14:46:56;5.05;;;0.40;;
29574;SDS011;16507;51.046;6.406;2022-10-16T14:49:22;2.38;;;0.40;;
29574;SDS011;16507;51.046;6.406;2022-10-16T14:51:49;1.05;;;0.30;;
29574;SDS011;16507;51.046;6.406;2022-10-16T14:54:16;1.00;;;0.40;;
29574;SDS011;16507;51.046;6.406;2022-10-16T14:56:49;5.72;;;0.40;;
29574;SDS011;16507;51.046;6.406;2022-10-16T14:59:18;3.80;;;0.55;;
29574;SDS011;16507;51.046;6.406;2022-10-16T15:01:55;0.60;;;0.40;;
29574;SDS011;16507;51.046;6.406;2022-10-16T15:04:21;14.05;;;1.23;;
29574;SDS011;16507;51.046;6.406;2022-10-16T15:06:47;9.85;;;0.90;;
29574;SDS011;16507;51.046;6.406;2022-10-16T15:09:12;56.03;;;2.78;;
29574;SDS011;16507;51.046;6.406;2022-10-16T15:11:38;37.38;;;1.30;;
29574;SDS011;16507;51.046;6.406;2022-10-16T15:14:04;42.42;;;2.05;;
29574;SDS011;16507;51.046;6.406;2022-10-16T15:16:31;10.68;;;1.33;;
29574;SDS011;16507;51.046;6.406;2022-10-16T15:18:56;21.23;;;1.20;;
29574;SDS011;16507;51.046;6.406;2022-10-16T15:21:26;6.15;;;0.57;;
29574;SDS011;16507;51.046;6.406;2022-10-16T15:23:54;23.38;;;1.08;;
29574;SDS011;16507;51.046;6.406;2022-10-16T15:26:22;13.65;;;1.20;;
29574;SDS011;16507;51.046;6.406;2022-10-16T15:28:52;11.38;;;0.80;;
29574;SDS011;16507;51.046;6.406;2022-10-16T15:31:18;20.77;;;0.90;;
29574;SDS011;16507;51.046;6.406;2022-10-16T15:33:44;12.00;;;1.25;;
29574;SDS011;16507;51.046;6.406;2022-10-16T15:36:12;6.55;;;0.73;;
29574;SDS011;16507;51.046;6.406;2022-10-16T15:38:38;0.60;;;0.40;;
29574;SDS011;16507;51.046;6.406;2022-10-16T15:41:04;36.90;;;1.60;;
29574;SDS011;16507;51.046;6.406;2022-10-16T15:43:29;7.68;;;0.68;;
29574;SDS011;16507;51.046;6.406;2022-10-16T15:46:03;18.45;;;1.33;;
29574;SDS011;16507;51.046;6.406;2022-10-16T15:48:30;13.15;;;0.85;;
29574;SDS011;16507;51.046;6.406;2022-10-16T15:50:56;36.10;;;2.17;;
29574;SDS011;16507;51.046;6.406;2022-10-16T15:53:22;7.90;;;0.95;;
29574;SDS011;16507;51.046;6.406;2022-10-16T15:55:48;8.27;;;0.68;;
29574;SDS011;16507;51.046;6.406;2022-10-16T15:58:14;2.38;;;0.60;;
29574;SDS011;16507;51.046;6.406;2022-10-16T16:00:39;16.02;;;1.02;;
29574;SDS011;16507;51.046;6.406;2022-10-16T16:03:05;4.55;;;0.65;;
29574;SDS011;16507;51.046;6.406;2022-10-16T16:05:31;18.00;;;1.52;;
29574;SDS011;16507;51.046;6.406;2022-10-16T16:07:58;7.65;;;0.60;;
29574;SDS011;16507;51.046;6.406;2022-10-16T16:10:23;14.48;;;1.23;;
29574;SDS011;16507;51.046;6.406;2022-10-16T16:12:50;21.63;;;1.00;;
29574;SDS011;16507;51.046;6.406;2022-10-16T16:15:21;13.30;;;0.90;;
29574;SDS011;16507;51.046;6.406;2022-10-16T16:17:47;16.63;;;0.82;;
29574;SDS011;16507;51.046;6.406;2022-10-16T16:20:13;34.40;;;1.77;;
29574;SDS011;16507;51.046;6.406;2022-10-16T16:22:39;30.33;;;2.58;;
29574;SDS011;16507;51.046;6.406;2022-10-16T16:25:05;29.00;;;1.65;;
29574;SDS011;16507;51.046;6.406;2022-10-16T16:27:31;13.90;;;0.68;;
29574;SDS011;16507;51.046;6.406;2022-10-16T16:29:58;66.18;;;2.60;;
29574;SDS011;16507;51.046;6.406;2022-10-16T16:32:25;14.13;;;1.63;;
29574;SDS011;16507;51.046;6.406;2022-10-16T16:34:51;66.60;;;3.10;;
29574;SDS011;16507;51.046;6.406;2022-10-16T16:37:16;10.32;;;0.90;;
29574;SDS011;16507;51.046;6.406;2022-10-16T16:39:42;13.75;;;0.95;;
29574;SDS011;16507;51.046;6.406;2022-10-16T16:42:08;3.15;;;0.77;;
29574;SDS011;16507;51.046;6.406;2022-10-16T16:44:35;17.08;;;0.98;;
29574;SDS011;16507;51.046;6.406;2022-10-16T16:47:01;74.70;;;3.28;;
29574;SDS011;16507;51.046;6.406;2022-10-16T16:49:27;23.83;;;1.90;;
29574;SDS011;16507;51.046;6.406;2022-10-16T16:51:53;36.97;;;2.63;;
29574;SDS011;16507;51.046;6.406;2022-10-16T16:54:19;19.88;;;1.35;;
29574;SDS011;16507;51.046;6.406;2022-10-16T16:56:45;13.32;;;0.90;;
29574;SDS011;16507;51.046;6.406;2022-10-16T16:59:12;28.60;;;2.17;;
29574;SDS011;16507;51.046;6.406;2022-10-16T17:01:39;36.10;;;2.53;;
29574;SDS011;16507;51.046;6.406;2022-10-16T17:04:05;78.38;;;3.83;;